sensor_id;sensor_type;location;lat;lon;timestamp;pressure;altitude;pressure_sealevel;temperature;humidity
37710;BME280;60223;34.854;-92.408;2024-02-04T00:04:47;99530.84;;;26.18;23.94
37710;BME280;60223;34.854;-92.408;2024-02-04T00:07:13;99532.51;;;26.12;24.02
37710;BME280;60223;34.854;-92.408;2024-02-04T00:09:39;99532.14;;;25.36;24.45
37710;BME280;60223;34.854;-92.408;2024-02-04T00:12:05;99532.44;;;25.54;24.33
37710;BME280;60223;34.854;-92.408;2024-02-04T00:14:28;99526.64;;;25.25;25.00
37710;BME280;60223;34.854;-92.408;2024-02-04T00:16:56;99528.03;;;25.28;24.99
37710;BME280;60223;34.854;-92.408;2024-02-04T00:19:21;99527.05;;;25.10;24.71
37710;BME280;60223;34.854;-92.408;2024-02-04T00:21:48;99526.32;;;25.63;24.46
37710;BME280;60223;34.854;-92.408;2024-02-04T00:24:13;99527.11;;;25.73;24.38
37710;BME280;60223;34.854;-92.408;2024-02-04T00:26:39;99539.47;;;25.72;24.39
37710;BME280;60223;34.854;-92.408;2024-02-04T00:29:04;99539.54;;;25.14;24.68
37710;BME280;60223;34.854;-92.408;2024-02-04T00:31:30;99542.47;;;25.15;24.70
37710;BME280;60223;34.854;-92.408;2024-02-04T00:33:55;99545.07;;;27.66;23.03
37710;BME280;60223;34.854;-92.408;2024-02-04T00:36:21;99535.32;;;26.85;23.56
37710;BME280;60223;34.854;-92.408;2024-02-04T00:38:45;99533.02;;;27.44;23.14
37710;BME280;60223;34.854;-92.408;2024-02-04T00:41:12;99539.12;;;27.43;23.19
37710;BME280;60223;34.854;-92.408;2024-02-04T00:43:39;99539.39;;;27.61;22.86
37710;BME280;60223;34.854;-92.408;2024-02-04T00:46:05;99544.88;;;27.10;23.21
37710;BME280;60223;34.854;-92.408;2024-02-04T00:48:28;99543.33;;;27.11;23.48
37710;BME280;60223;34.854;-92.408;2024-02-04T00:50:55;99531.30;;;26.93;23.67
37710;BME280;60223;34.854;-92.408;2024-02-04T00:53:20;99540.18;;;27.26;23.62
37710;BME280;60223;34.854;-92.408;2024-02-04T00:55:46;99542.01;;;26.57;23.81
37710;BME280;60223;34.854;-92.408;2024-02-04T00:58:12;99541.70;;;27.17;23.72
37710;BME280;60223;34.854;-92.408;2024-02-04T01:00:35;99535.59;;;26.44;24.11
37710;BME280;60223;34.854;-92.408;2024-02-04T01:03:04;99533.33;;;25.67;24.73
37710;BME280;60223;34.854;-92.408;2024-02-04T01:05:28;99537.50;;;25.52;24.91
37710;BME280;60223;34.854;-92.408;2024-02-04T01:07:54;99535.39;;;25.36;24.83
37710;BME280;60223;34.854;-92.408;2024-02-04T01:10:20;99528.67;;;25.54;24.86
37710;BME280;60223;34.854;-92.408;2024-02-04T01:12:45;99535.81;;;25.73;24.72
37710;BME280;60223;34.854;-92.408;2024-02-04T01:15:11;99530.95;;;26.02;24.64
37710;BME280;60223;34.854;-92.408;2024-02-04T01:17:35;99534.06;;;25.56;24.81
37710;BME280;60223;34.854;-92.408;2024-02-04T01:20:02;99535.26;;;25.37;24.98
37710;BME280;60223;34.854;-92.408;2024-02-04T01:22:28;99530.12;;;25.63;24.97
37710;BME280;60223;34.854;-92.408;2024-02-04T01:24:54;99531.15;;;25.60;25.02
37710;BME280;60223;34.854;-92.408;2024-02-04T01:27:20;99534.84;;;25.78;24.52
37710;BME280;60223;34.854;-92.408;2024-02-04T01:29:45;99542.16;;;27.27;23.25
37710;BME280;60223;34.854;-92.408;2024-02-04T01:32:11;99543.85;;;27.04;23.19
37710;BME280;60223;34.854;-92.408;2024-02-04T01:34:36;99538.56;;;28.12;22.88
37710;BME280;60223;34.854;-92.408;2024-02-04T01:37:02;99541.92;;;27.72;23.15
37710;BME280;60223;34.854;-92.408;2024-02-04T01:39:27;99541.38;;;27.79;23.14
37710;BME280;60223;34.854;-92.408;2024-02-04T01:41:53;99547.52;;;27.08;23.41
37710;BME280;60223;34.854;-92.408;2024-02-04T01:44:19;99540.27;;;27.22;23.51
37710;BME280;60223;34.854;-92.408;2024-02-04T01:46:45;99539.85;;;27.24;23.56
37710;BME280;60223;34.854;-92.408;2024-02-04T01:49:10;99540.62;;;26.94;23.62
37710;BME280;60223;34.854;-92.408;2024-02-04T01:51:36;99538.61;;;26.69;24.00
37710;BME280;60223;34.854;-92.408;2024-02-04T01:54:02;99538.54;;;26.19;24.41
37710;BME280;60223;34.854;-92.408;2024-02-04T01:56:27;99537.45;;;25.66;24.65
37710;BME280;60223;34.854;-92.408;2024-02-04T01:58:51;99537.17;;;25.98;24.58
37710;BME280;60223;34.854;-92.408;2024-02-04T02:01:19;99539.10;;;25.75;24.77
37710;BME280;60223;34.854;-92.408;2024-02-04T02:03:44;99534.75;;;25.90;24.83
37710;BME280;60223;34.854;-92.408;2024-02-04T02:06:10;99532.96;;;25.34;24.89
37710;BME280;60223;34.854;-92.408;2024-02-04T02:08:35;99536.41;;;25.50;24.96
37710;BME280;60223;34.854;-92.408;2024-02-04T02:11:07;99532.19;;;25.70;24.98
37710;BME280;60223;34.854;-92.408;2024-02-04T02:13:28;99529.22;;;25.81;24.84
37710;BME280;60223;34.854;-92.408;2024-02-04T02:15:52;99525.65;;;25.36;25.06
37710;BME280;60223;34.854;-92.408;2024-02-04T02:18:23;99525.72;;;26.76;24.09
37710;BME280;60223;34.854;-92.408;2024-02-04T02:20:52;99524.78;;;26.83;23.64
37710;BME280;60223;34.854;-92.408;2024-02-04T02:23:12;99522.99;;;27.06;23.45
37710;BME280;60223;34.854;-92.408;2024-02-04T02:25:36;99517.14;;;27.55;22.93
37710;BME280;60223;34.854;-92.408;2024-02-04T02:28:00;99516.84;;;27.66;23.07
37710;BME280;60223;34.854;-92.408;2024-02-04T02:30:26;99508.89;;;27.25;23.18
37710;BME280;60223;34.854;-92.408;2024-02-04T02:32:52;99503.85;;;27.53;23.27
37710;BME280;60223;34.854;-92.408;2024-02-04T02:35:18;99496.67;;;27.15;23.38
37710;BME280;60223;34.854;-92.408;2024-02-04T02:37:49;99495.20;;;27.52;23.30
37710;BME280;60223;34.854;-92.408;2024-02-04T02:40:09;99497.53;;;26.80;24.10
37710;BME280;60223;34.854;-92.408;2024-02-04T02:42:34;99496.69;;;25.62;24.69
37710;BME280;60223;34.854;-92.408;2024-02-04T02:45:00;99497.80;;;25.72;24.61
37710;BME280;60223;34.854;-92.408;2024-02-04T02:47:27;99494.66;;;25.82;24.73
37710;BME280;60223;34.854;-92.408;2024-02-04T02:49:51;99487.17;;;25.52;24.76
37710;BME280;60223;34.854;-92.408;2024-02-04T02:52:14;99484.31;;;25.59;24.88
37710;BME280;60223;34.854;-92.408;2024-02-04T02:54:42;99482.64;;;25.46;24.99
37710;BME280;60223;34.854;-92.408;2024-02-04T02:57:08;99483.20;;;25.75;24.96
37710;BME280;60223;34.854;-92.408;2024-02-04T02:59:33;99476.38;;;25.30;24.91
37710;BME280;60223;34.854;-92.408;2024-02-04T03:01:59;99481.20;;;25.31;24.88
37710;BME280;60223;34.854;-92.408;2024-02-04T03:04:23;99479.47;;;25.22;24.96
37710;BME280;60223;34.854;-92.408;2024-02-04T03:06:51;99479.10;;;25.54;24.87
37710;BME280;60223;34.854;-92.408;2024-02-04T03:09:16;99484.23;;;27.93;23.02
37710;BME280;60223;34.854;-92.408;2024-02-04T03:11:42;99482.17;;;26.49;24.04
37710;BME280;60223;34.854;-92.408;2024-02-04T03:14:08;99476.59;;;27.66;22.99
37710;BME280;60223;34.854;-92.408;2024-02-04T03:16:32;99476.70;;;28.06;22.87
37710;BME280;60223;34.854;-92.408;2024-02-04T03:18:58;99475.16;;;27.48;22.94
37710;BME280;60223;34.854;-92.408;2024-02-04T03:21:26;99465.63;;;27.20;23.28
37710;BME280;60223;34.854;-92.408;2024-02-04T03:23:50;99463.49;;;27.70;23.27
37710;BME280;60223;34.854;-92.408;2024-02-04T03:26:20;99459.72;;;26.99;23.86
37710;BME280;60223;34.854;-92.408;2024-02-04T03:28:40;99453.16;;;26.33;24.01
37710;BME280;60223;34.854;-92.408;2024-02-04T03:31:07;99441.20;;;25.70;24.56
37710;BME280;60223;34.854;-92.408;2024-02-04T03:33:33;99439.27;;;25.67;24.79
37710;BME280;60223;34.854;-92.408;2024-02-04T03:35:58;99439.16;;;25.77;24.68
37710;BME280;60223;34.854;-92.408;2024-02-04T03:38:24;99430.60;;;25.40;24.77
37710;BME280;60223;34.854;-92.408;2024-02-04T03:40:50;99428.72;;;25.30;24.86
37710;BME280;60223;34.854;-92.408;2024-02-04T03:43:15;99428.62;;;25.18;24.97
37710;BME280;60223;34.854;-92.408;2024-02-04T03:45:41;99420.13;;;25.52;24.85
37710;BME280;60223;34.854;-92.408;2024-02-04T03:48:07;99419.84;;;25.31;24.82
37710;BME280;60223;34.854;-92.408;2024-02-04T03:50:31;99425.04;;;25.19;24.93
37710;BME280;60223;34.854;-92.408;2024-02-04T03:52:57;99429.43;;;25.31;25.02
37710;BME280;60223;34.854;-92.408;2024-02-04T03:55:23;99422.24;;;25.15;24.97
37710;BME280;60223;34.854;-92.408;2024-02-04T03:57:48;99421.45;;;26.50;24.14
37710;BME280;60223;34.854;-92.408;2024-02-04T04:00:15;99412.27;;;26.50;23.64
37710;BME280;60223;34.854;-92.408;2024-02-04T04:02:39;99410.95;;;27.01;23.20
37710;BME280;60223;34.854;-92.408;2024-02-04T04:05:06;99405.89;;;27.58;22.81
37710;BME280;60223;34.854;-92.408;2024-02-04T04:07:31;99400.24;;;27.82;22.68
37710;BME280;60223;34.854;-92.408;2024-02-04T04:09:55;99398.85;;;27.55;22.86
37710;BME280;60223;34.854;-92.408;2024-02-04T04:12:22;99395.13;;;27.12;23.29
37710;BME280;60223;34.854;-92.408;2024-02-04T04:14:48;99392.53;;;26.74;23.64
37710;BME280;60223;34.854;-92.408;2024-02-04T04:17:14;99385.60;;;27.36;23.34
37710;BME280;60223;34.854;-92.408;2024-02-04T04:19:40;99381.93;;;26.61;23.94
37710;BME280;60223;34.854;-92.408;2024-02-04T04:22:03;99377.96;;;25.79;24.43
37710;BME280;60223;34.854;-92.408;2024-02-04T04:24:31;99382.21;;;25.83;24.60
37710;BME280;60223;34.854;-92.408;2024-02-04T04:26:56;99375.28;;;26.00;24.65
37710;BME280;60223;34.854;-92.408;2024-02-04T04:29:19;99370.69;;;25.68;24.70
37710;BME280;60223;34.854;-92.408;2024-02-04T04:31:47;99365.46;;;25.60;24.75
37710;BME280;60223;34.854;-92.408;2024-02-04T04:34:13;99364.44;;;25.35;24.76
37710;BME280;60223;34.854;-92.408;2024-02-04T04:36:39;99363.33;;;25.54;24.80
37710;BME280;60223;34.854;-92.408;2024-02-04T04:39:05;99358.08;;;25.52;24.81
37710;BME280;60223;34.854;-92.408;2024-02-04T04:41:29;99351.14;;;25.50;24.80
37710;BME280;60223;34.854;-92.408;2024-02-04T04:43:56;99347.61;;;25.42;24.85
37710;BME280;60223;34.854;-92.408;2024-02-04T04:46:21;99334.33;;;25.40;24.90
37710;BME280;60223;34.854;-92.408;2024-02-04T04:48:47;99339.64;;;25.17;24.87
37710;BME280;60223;34.854;-92.408;2024-02-04T04:51:11;99342.26;;;25.67;24.81
37710;BME280;60223;34.854;-92.408;2024-02-04T04:53:40;99337.75;;;25.58;24.84
37710;BME280;60223;34.854;-92.408;2024-02-04T04:56:04;99342.86;;;26.40;23.84
37710;BME280;60223;34.854;-92.408;2024-02-04T04:58:30;99330.88;;;26.73;23.50
37710;BME280;60223;34.854;-92.408;2024-02-04T05:00:54;99325.25;;;27.14;23.18
37710;BME280;60223;34.854;-92.408;2024-02-04T05:03:20;99325.77;;;27.81;22.66
37710;BME280;60223;34.854;-92.408;2024-02-04T05:05:46;99323.07;;;27.62;22.70
37710;BME280;60223;34.854;-92.408;2024-02-04T05:08:12;99326.72;;;28.11;22.70
37710;BME280;60223;34.854;-92.408;2024-02-04T05:10:36;99327.01;;;27.45;23.13
37710;BME280;60223;34.854;-92.408;2024-02-04T05:13:03;99323.34;;;26.55;23.66
37710;BME280;60223;34.854;-92.408;2024-02-04T05:15:29;99335.36;;;26.68;23.77
37710;BME280;60223;34.854;-92.408;2024-02-04T05:17:54;99342.10;;;26.38;24.23
37710;BME280;60223;34.854;-92.408;2024-02-04T05:20:20;99329.67;;;25.56;24.53
37710;BME280;60223;34.854;-92.408;2024-02-04T05:22:44;99333.42;;;25.56;24.53
37710;BME280;60223;34.854;-92.408;2024-02-04T05:25:11;99337.20;;;25.37;24.67
37710;BME280;60223;34.854;-92.408;2024-02-04T05:27:37;99341.12;;;25.57;24.92
37710;BME280;60223;34.854;-92.408;2024-02-04T05:30:02;99320.42;;;25.81;24.72
37710;BME280;60223;34.854;-92.408;2024-02-04T05:32:27;99305.84;;;25.56;24.68
37710;BME280;60223;34.854;-92.408;2024-02-04T05:34:53;99311.94;;;25.57;24.64
37710;BME280;60223;34.854;-92.408;2024-02-04T05:37:18;99303.50;;;25.41;24.78
37710;BME280;60223;34.854;-92.408;2024-02-04T05:39:43;99299.10;;;25.26;24.70
37710;BME280;60223;34.854;-92.408;2024-02-04T05:42:10;99291.04;;;25.03;24.90
37710;BME280;60223;34.854;-92.408;2024-02-04T05:44:36;99284.21;;;25.12;25.00
37710;BME280;60223;34.854;-92.408;2024-02-04T05:47:01;99272.89;;;27.60;22.58
37710;BME280;60223;34.854;-92.408;2024-02-04T05:49:26;99263.28;;;26.64;23.48
37710;BME280;60223;34.854;-92.408;2024-02-04T05:51:52;99272.45;;;27.34;22.76
37710;BME280;60223;34.854;-92.408;2024-02-04T05:54:18;99263.24;;;27.92;22.54
37710;BME280;60223;34.854;-92.408;2024-02-04T05:56:44;99255.44;;;28.04;22.51
37710;BME280;60223;34.854;-92.408;2024-02-04T05:59:10;99241.51;;;27.63;22.91
37710;BME280;60223;34.854;-92.408;2024-02-04T06:01:36;99232.75;;;27.94;22.69
37710;BME280;60223;34.854;-92.408;2024-02-04T06:04:01;99228.17;;;27.24;23.27
37710;BME280;60223;34.854;-92.408;2024-02-04T06:06:26;99218.54;;;26.17;23.96
37710;BME280;60223;34.854;-92.408;2024-02-04T06:08:52;99213.61;;;26.19;24.13
37710;BME280;60223;34.854;-92.408;2024-02-04T06:11:17;99204.59;;;25.49;24.52
37710;BME280;60223;34.854;-92.408;2024-02-04T06:13:44;99196.57;;;25.68;24.55
37710;BME280;60223;34.854;-92.408;2024-02-04T06:16:09;99195.42;;;25.79;24.64
37710;BME280;60223;34.854;-92.408;2024-02-04T06:18:32;99191.41;;;25.67;24.51
37710;BME280;60223;34.854;-92.408;2024-02-04T06:20:57;99183.76;;;25.31;24.60
37710;BME280;60223;34.854;-92.408;2024-02-04T06:23:23;99171.36;;;25.53;24.62
37710;BME280;60223;34.854;-92.408;2024-02-04T06:25:51;99167.80;;;25.28;24.65
37710;BME280;60223;34.854;-92.408;2024-02-04T06:28:17;99165.86;;;25.69;24.70
37710;BME280;60223;34.854;-92.408;2024-02-04T06:30:43;99156.04;;;25.57;24.81
37710;BME280;60223;34.854;-92.408;2024-02-04T06:33:07;99145.01;;;25.27;24.85
37710;BME280;60223;34.854;-92.408;2024-02-04T06:35:35;99143.40;;;26.70;23.77
37710;BME280;60223;34.854;-92.408;2024-02-04T06:38:00;99145.15;;;26.97;23.21
37710;BME280;60223;34.854;-92.408;2024-02-04T06:40:24;99139.28;;;27.23;22.98
37710;BME280;60223;34.854;-92.408;2024-02-04T06:42:51;99139.97;;;27.64;22.52
37710;BME280;60223;34.854;-92.408;2024-02-04T06:45:15;99137.99;;;28.16;22.36
37710;BME280;60223;34.854;-92.408;2024-02-04T06:47:43;99136.56;;;27.56;22.70
37710;BME280;60223;34.854;-92.408;2024-02-04T06:50:08;99131.21;;;27.37;23.10
37710;BME280;60223;34.854;-92.408;2024-02-04T06:52:33;99127.12;;;26.69;23.64
37710;BME280;60223;34.854;-92.408;2024-02-04T06:54:58;99118.43;;;25.93;24.32
37710;BME280;60223;34.854;-92.408;2024-02-04T06:57:24;99116.96;;;26.23;24.27
37710;BME280;60223;34.854;-92.408;2024-02-04T06:59:50;99116.21;;;25.65;24.56
37710;BME280;60223;34.854;-92.408;2024-02-04T07:02:16;99117.88;;;25.76;24.67
37710;BME280;60223;34.854;-92.408;2024-02-04T07:04:42;99113.96;;;25.22;24.69
37710;BME280;60223;34.854;-92.408;2024-02-04T07:07:06;99107.78;;;25.64;24.54
37710;BME280;60223;34.854;-92.408;2024-02-04T07:09:32;99107.24;;;25.59;24.53
37710;BME280;60223;34.854;-92.408;2024-02-04T07:11:58;99110.87;;;25.30;24.62
37710;BME280;60223;34.854;-92.408;2024-02-04T07:14:22;99110.89;;;25.32;24.58
37710;BME280;60223;34.854;-92.408;2024-02-04T07:16:50;99110.89;;;25.76;24.62
37710;BME280;60223;34.854;-92.408;2024-02-04T07:19:15;99110.59;;;25.29;24.58
37710;BME280;60223;34.854;-92.408;2024-02-04T07:21:40;99117.08;;;25.39;24.72
37710;BME280;60223;34.854;-92.408;2024-02-04T07:24:07;99116.45;;;26.70;23.58
37710;BME280;60223;34.854;-92.408;2024-02-04T07:26:31;99141.51;;;27.46;22.67
37710;BME280;60223;34.854;-92.408;2024-02-04T07:48:25;99147.83;;;25.66;24.37
37710;BME280;60223;34.854;-92.408;2024-02-04T07:50:49;99142.98;;;25.28;24.66
37710;BME280;60223;34.854;-92.408;2024-02-04T07:53:14;99147.58;;;25.52;24.66
37710;BME280;60223;34.854;-92.408;2024-02-04T07:55:40;99148.55;;;25.39;24.79
37710;BME280;60223;34.854;-92.408;2024-02-04T07:58:04;99152.90;;;25.26;24.89
37710;BME280;60223;34.854;-92.408;2024-02-04T08:00:31;99158.42;;;25.25;24.68
37710;BME280;60223;34.854;-92.408;2024-02-04T08:02:56;99156.15;;;25.21;24.71
37710;BME280;60223;34.854;-92.408;2024-02-04T08:05:22;99155.63;;;25.71;24.68
37710;BME280;60223;34.854;-92.408;2024-02-04T08:07:48;99153.47;;;25.43;24.70
37710;BME280;60223;34.854;-92.408;2024-02-04T08:10:12;99146.08;;;25.27;24.62
37710;BME280;60223;34.854;-92.408;2024-02-04T08:12:41;99135.98;;;25.78;24.57
37710;BME280;60223;34.854;-92.408;2024-02-04T08:15:07;99131.42;;;25.57;24.75
37710;BME280;60223;34.854;-92.408;2024-02-04T08:17:32;99134.84;;;27.01;23.08
37710;BME280;60223;34.854;-92.408;2024-02-04T08:19:56;99130.37;;;27.11;22.85
37710;BME280;60223;34.854;-92.408;2024-02-04T08:22:24;99134.50;;;27.00;23.13
37710;BME280;60223;34.854;-92.408;2024-02-04T08:24:49;99134.93;;;27.67;22.37
37710;BME280;60223;34.854;-92.408;2024-02-04T08:27:14;99136.60;;;28.12;22.30
37710;BME280;60223;34.854;-92.408;2024-02-04T08:29:40;99144.18;;;27.56;22.61
37710;BME280;60223;34.854;-92.408;2024-02-04T08:32:04;99144.69;;;27.41;23.00
37710;BME280;60223;34.854;-92.408;2024-02-04T08:34:31;99148.42;;;27.30;23.28
37710;BME280;60223;34.854;-92.408;2024-02-04T08:36:57;99145.58;;;27.04;23.53
37710;BME280;60223;34.854;-92.408;2024-02-04T08:39:23;99139.09;;;25.43;24.45
37710;BME280;60223;34.854;-92.408;2024-02-04T08:41:48;99147.36;;;25.70;24.45
37710;BME280;60223;34.854;-92.408;2024-02-04T08:44:13;99146.90;;;25.24;24.81
37710;BME280;60223;34.854;-92.408;2024-02-04T08:46:40;99144.74;;;25.56;24.55
37710;BME280;60223;34.854;-92.408;2024-02-04T08:49:02;99140.69;;;25.74;24.60
37710;BME280;60223;34.854;-92.408;2024-02-04T08:51:31;99138.70;;;25.58;24.50
37710;BME280;60223;34.854;-92.408;2024-02-04T08:53:56;99137.92;;;25.54;24.53
37710;BME280;60223;34.854;-92.408;2024-02-04T08:56:21;99137.92;;;25.57;24.51
37710;BME280;60223;34.854;-92.408;2024-02-04T08:58:47;99133.44;;;25.66;24.66
37710;BME280;60223;34.854;-92.408;2024-02-04T09:01:13;99134.72;;;25.64;24.64
37710;BME280;60223;34.854;-92.408;2024-02-04T09:03:37;99134.61;;;25.41;24.61
37710;BME280;60223;34.854;-92.408;2024-02-04T09:06:05;99124.50;;;26.62;23.71
37710;BME280;60223;34.854;-92.408;2024-02-04T09:08:30;99109.33;;;26.38;23.58
37710;BME280;60223;34.854;-92.408;2024-02-04T09:10:56;99080.97;;;27.08;22.97
37710;BME280;60223;34.854;-92.408;2024-02-04T09:13:22;99053.13;;;27.82;22.37
37710;BME280;60223;34.854;-92.408;2024-02-04T09:15:47;99056.53;;;27.79;22.30
37710;BME280;60223;34.854;-92.408;2024-02-04T09:18:13;99080.21;;;27.98;22.23
37710;BME280;60223;34.854;-92.408;2024-02-04T09:20:39;99101.68;;;27.48;22.73
37710;BME280;60223;34.854;-92.408;2024-02-04T09:23:05;99091.04;;;27.04;23.13
37710;BME280;60223;34.854;-92.408;2024-02-04T09:25:29;99102.11;;;27.05;23.14
37710;BME280;60223;34.854;-92.408;2024-02-04T09:27:55;99101.79;;;26.82;23.32
37710;BME280;60223;34.854;-92.408;2024-02-04T09:30:18;99100.83;;;25.63;24.29
37710;BME280;60223;34.854;-92.408;2024-02-04T09:32:46;99109.55;;;25.70;24.66
37710;BME280;60223;34.854;-92.408;2024-02-04T09:35:12;99109.28;;;25.35;24.55
37710;BME280;60223;34.854;-92.408;2024-02-04T09:37:38;99104.62;;;25.35;24.55
37710;BME280;60223;34.854;-92.408;2024-02-04T09:40:03;99110.38;;;25.36;24.51
37710;BME280;60223;34.854;-92.408;2024-02-04T09:42:27;99111.56;;;25.20;24.65
37710;BME280;60223;34.854;-92.408;2024-02-04T09:44:56;99111.47;;;25.60;24.69
37710;BME280;60223;34.854;-92.408;2024-02-04T09:47:21;99114.12;;;25.56;24.52
37710;BME280;60223;34.854;-92.408;2024-02-04T09:49:46;99118.24;;;25.84;24.50
37710;BME280;60223;34.854;-92.408;2024-02-04T09:52:11;99120.87;;;25.58;24.49
37710;BME280;60223;34.854;-92.408;2024-02-04T09:54:42;99119.70;;;25.82;24.48
37710;BME280;60223;34.854;-92.408;2024-02-04T09:57:01;99120.69;;;25.02;24.77
37710;BME280;60223;34.854;-92.408;2024-02-04T09:59:28;99124.54;;;25.31;24.48
37710;BME280;60223;34.854;-92.408;2024-02-04T10:01:54;99127.97;;;25.66;24.18
37710;BME280;60223;34.854;-92.408;2024-02-04T10:04:20;99135.95;;;26.92;23.13
37710;BME280;60223;34.854;-92.408;2024-02-04T10:06:44;99140.09;;;27.20;22.73
37710;BME280;60223;34.854;-92.408;2024-02-04T10:09:10;99142.55;;;28.14;22.17
37710;BME280;60223;34.854;-92.408;2024-02-04T10:11:35;99143.42;;;28.12;22.04
37710;BME280;60223;34.854;-92.408;2024-02-04T10:14:00;99147.32;;;28.02;22.39
37710;BME280;60223;34.854;-92.408;2024-02-04T10:16:28;99145.49;;;27.55;22.86
37710;BME280;60223;34.854;-92.408;2024-02-04T10:18:53;99145.29;;;27.12;23.02
37710;BME280;60223;34.854;-92.408;2024-02-04T10:21:20;99147.44;;;27.39;23.03
37710;BME280;60223;34.854;-92.408;2024-02-04T10:23:44;99152.22;;;26.58;23.48
37710;BME280;60223;34.854;-92.408;2024-02-04T10:26:09;99152.23;;;26.09;24.08
37710;BME280;60223;34.854;-92.408;2024-02-04T10:28:36;99151.85;;;25.33;24.75
37710;BME280;60223;34.854;-92.408;2024-02-04T10:30:59;99152.62;;;25.52;24.37
37710;BME280;60223;34.854;-92.408;2024-02-04T10:33:25;99148.95;;;25.99;24.37
37710;BME280;60223;34.854;-92.408;2024-02-04T10:35:53;99148.57;;;25.48;24.38
37710;BME280;60223;34.854;-92.408;2024-02-04T10:38:18;99151.72;;;25.57;24.49
37710;BME280;60223;34.854;-92.408;2024-02-04T10:40:44;99156.08;;;25.39;24.45
37710;BME280;60223;34.854;-92.408;2024-02-04T10:43:11;99157.41;;;25.33;24.50
37710;BME280;60223;34.854;-92.408;2024-02-04T10:45:37;99154.64;;;25.49;24.57
37710;BME280;60223;34.854;-92.408;2024-02-04T10:48:04;99151.23;;;25.48;24.55
37710;BME280;60223;34.854;-92.408;2024-02-04T10:50:27;99151.00;;;25.43;24.38
37710;BME280;60223;34.854;-92.408;2024-02-04T10:52:52;99152.61;;;25.43;24.59
37710;BME280;60223;34.854;-92.408;2024-02-04T10:55:19;99149.61;;;25.58;24.62
37710;BME280;60223;34.854;-92.408;2024-02-04T10:57:43;99150.32;;;25.26;24.67
37710;BME280;60223;34.854;-92.408;2024-02-04T11:00:09;99160.46;;;24.57;25.01
37710;BME280;60223;34.854;-92.408;2024-02-04T11:02:38;99159.20;;;26.94;23.26
37710;BME280;60223;34.854;-92.408;2024-02-04T11:04:58;99159.01;;;26.54;23.39
37710;BME280;60223;34.854;-92.408;2024-02-04T11:07:26;99149.14;;;27.39;22.73
37710;BME280;60223;34.854;-92.408;2024-02-04T11:09:52;99141.36;;;27.71;22.22
37710;BME280;60223;34.854;-92.408;2024-02-04T11:12:18;99144.03;;;27.85;22.17
37710;BME280;60223;34.854;-92.408;2024-02-04T11:14:45;99144.56;;;28.20;22.16
37710;BME280;60223;34.854;-92.408;2024-02-04T11:19:44;99137.97;;;27.22;22.91
37710;BME280;60223;34.854;-92.408;2024-02-04T11:22:10;99138.87;;;27.37;22.97
37710;BME280;60223;34.854;-92.408;2024-02-04T11:24:32;99132.31;;;26.69;23.50
37710;BME280;60223;34.854;-92.408;2024-02-04T11:26:50;99127.69;;;25.96;23.90
37710;BME280;60223;34.854;-92.408;2024-02-04T11:29:16;99131.11;;;25.77;24.28
37710;BME280;60223;34.854;-92.408;2024-02-04T11:31:42;99133.11;;;25.67;24.37
37710;BME280;60223;34.854;-92.408;2024-02-04T11:34:08;99127.44;;;25.05;24.70
37710;BME280;60223;34.854;-92.408;2024-02-04T11:38:59;99109.96;;;25.21;24.52
37710;BME280;60223;34.854;-92.408;2024-02-04T11:41:26;99108.10;;;25.52;24.48
37710;BME280;60223;34.854;-92.408;2024-02-04T11:43:51;99108.40;;;25.65;24.55
37710;BME280;60223;34.854;-92.408;2024-02-04T11:46:20;99106.30;;;25.57;24.40
37710;BME280;60223;34.854;-92.408;2024-02-04T11:48:41;99101.18;;;25.50;24.46
37710;BME280;60223;34.854;-92.408;2024-02-04T11:51:07;99092.06;;;25.87;24.35
37710;BME280;60223;34.854;-92.408;2024-02-04T11:53:33;99096.68;;;26.32;23.66
37710;BME280;60223;34.854;-92.408;2024-02-04T11:55:59;99110.04;;;26.73;23.25
37710;BME280;60223;34.854;-92.408;2024-02-04T11:58:24;99114.73;;;27.31;22.52
37710;BME280;60223;34.854;-92.408;2024-02-04T12:00:51;99106.24;;;27.98;22.18
37710;BME280;60223;34.854;-92.408;2024-02-04T12:03:14;99105.85;;;28.10;21.96
37710;BME280;60223;34.854;-92.408;2024-02-04T12:05:41;99101.69;;;28.19;22.15
37710;BME280;60223;34.854;-92.408;2024-02-04T12:08:06;99101.05;;;28.02;22.61
37710;BME280;60223;34.854;-92.408;2024-02-04T12:10:33;99107.84;;;27.34;22.79
37710;BME280;60223;34.854;-92.408;2024-02-04T12:12:58;99113.80;;;27.77;22.84
37710;BME280;60223;34.854;-92.408;2024-02-04T12:15:23;99121.12;;;26.87;23.38
37710;BME280;60223;34.854;-92.408;2024-02-04T12:17:48;99123.45;;;26.56;23.62
37710;BME280;60223;34.854;-92.408;2024-02-04T12:20:14;99125.53;;;25.59;24.27
37710;BME280;60223;34.854;-92.408;2024-02-04T12:22:40;99124.61;;;25.55;24.49
37710;BME280;60223;34.854;-92.408;2024-02-04T12:25:06;99122.70;;;25.73;24.33
37710;BME280;60223;34.854;-92.408;2024-02-04T12:27:30;99116.45;;;25.55;24.27
37710;BME280;60223;34.854;-92.408;2024-02-04T12:29:56;99114.71;;;25.60;24.22
37710;BME280;60223;34.854;-92.408;2024-02-04T12:32:22;99108.74;;;25.39;24.39
37710;BME280;60223;34.854;-92.408;2024-02-04T12:34:51;99105.02;;;25.67;24.34
37710;BME280;60223;34.854;-92.408;2024-02-04T12:37:13;99107.81;;;25.67;24.32
37710;BME280;60223;34.854;-92.408;2024-02-04T12:39:37;99117.96;;;25.48;24.28
37710;BME280;60223;34.854;-92.408;2024-02-04T12:42:05;99121.10;;;25.92;24.30
37710;BME280;60223;34.854;-92.408;2024-02-04T12:44:30;99116.32;;;25.81;24.38
37710;BME280;60223;34.854;-92.408;2024-02-04T12:46:56;99119.61;;;25.06;25.48
37710;BME280;60223;34.854;-92.408;2024-02-04T12:49:22;99125.19;;;26.94;23.65
37710;BME280;60223;34.854;-92.408;2024-02-04T12:51:47;99127.43;;;26.19;23.61
37710;BME280;60223;34.854;-92.408;2024-02-04T12:54:13;99131.90;;;27.84;22.33
37710;BME280;60223;34.854;-92.408;2024-02-04T12:56:46;99137.55;;;27.75;22.62
37710;BME280;60223;34.854;-92.408;2024-02-04T12:59:01;99142.81;;;27.66;22.66